Historique des stations

Station météo de Le Mesnil-Thomas

Altitude de la station : 196 m







Données météorologiques pour le 18/05/2022
Date
Heure
Températures Humidité Point de rosée Vitesse
du vent
Direction Rafales Windchill Pression Pluviométrie
Cumul
Date
Heure
Températures Humidité Point de rosée Vitesse
du vent
Direction Rafales Windchill Pression Pluviométrie
Cumul
18/05/2022 15:5926.4 °C55 %16.7 °C-SSE14 km/h26.7 1020 hPa0.2 mm
18/05/2022 15:4526.3 °C55 %16.7 °C10 km/hSE14 km/h26.1 1021 hPa0.2 mm
18/05/2022 15:2926.3 °C54 %16.1 °C3 km/hNNE11 km/h26.1 1021 hPa0.2 mm
18/05/2022 15:1426.2 °C56 %16.7 °C5 km/hNE11 km/h26.1 1021 hPa0.2 mm
18/05/2022 15:0026.0 °C56 %16.7 °C2 km/hNE8 km/h26.1 1021 hPa0.2 mm
18/05/2022 14:5926.0 °C56 %16.7 °C6 km/hN11 km/h26.1 1021 hPa0.2 mm
18/05/2022 14:4525.6 °C58 %16.7 °C3 km/hNE11 km/h25.6 1021 hPa0.2 mm
18/05/2022 14:4425.6 °C57 %16.7 °C6 km/hE11 km/h25.6 1021 hPa0.2 mm
18/05/2022 14:2925.3 °C61 %17.2 °C-SSE11 km/h25.6 1021 hPa0.2 mm
18/05/2022 14:1525.1 °C60 %16.7 °C5 km/hESE11 km/h25.0 1022 hPa0.2 mm
18/05/2022 14:1425.1 °C60 %16.7 °C3 km/hN11 km/h25.0 1022 hPa0.2 mm
18/05/2022 13:5924.7 °C62 %17.2 °C5 km/hN11 km/h25.0 1022 hPa0.2 mm
18/05/2022 13:4524.1 °C65 %17.2 °C-OSO6 km/h23.9 1022 hPa0.2 mm
18/05/2022 13:4424.0 °C65 %17.2 °C2 km/hE11 km/h23.9 1022 hPa0.2 mm
18/05/2022 13:2923.9 °C68 %17.8 °C6 km/hNNO11 km/h23.9 1022 hPa0.2 mm
18/05/2022 13:1423.8 °C66 %17.2 °C5 km/hESE11 km/h23.9 1022 hPa0.2 mm
18/05/2022 13:0023.7 °C69 %17.8 °C-NNE5 km/h23.9 1022 hPa0.2 mm
18/05/2022 12:5923.7 °C69 %17.8 °C-NNE11 km/h23.9 1022 hPa0.2 mm
18/05/2022 12:4523.2 °C71 %17.8 °C8 km/hESE8 km/h23.3 1022 hPa0.2 mm
18/05/2022 12:4423.1 °C70 %17.2 °C3 km/hESE11 km/h23.3 1022 hPa0.2 mm
18/05/2022 12:2922.8 °C71 %17.2 °C2 km/hNE11 km/h22.8 1023 hPa0.2 mm
18/05/2022 12:1522.5 °C71 %17.2 °C3 km/hN8 km/h22.8 1023 hPa0.2 mm
18/05/2022 12:1422.4 °C72 %17.2 °C6 km/hN11 km/h22.2 1023 hPa0.2 mm
18/05/2022 11:5922.0 °C74 %17.2 °C3 km/hN11 km/h22.2 1023 hPa0.2 mm
18/05/2022 11:4421.4 °C74 %16.7 °C3 km/hNO11 km/h21.7 1023 hPa0.2 mm
18/05/2022 11:3021.2 °C77 %17.2 °C3 km/hN8 km/h21.1 1023 hPa0.2 mm
18/05/2022 11:2821.1 °C77 %16.7 °C-E11 km/h21.1 1023 hPa0.2 mm
18/05/2022 11:1520.6 °C78 %16.7 °C2 km/hN8 km/h20.6 1023 hPa0.2 mm
18/05/2022 11:1420.6 °C78 %16.7 °C2 km/hN11 km/h20.6 1023 hPa0.2 mm
18/05/2022 10:5920.4 °C79 %16.7 °C2 km/hE11 km/h20.6 1023 hPa0.2 mm
18/05/2022 10:4519.9 °C79 %16.1 °C3 km/hNNE6 km/h20.0 1023 hPa0.2 mm
18/05/2022 10:4419.9 °C78 %16.1 °C2 km/hN11 km/h20.0 1023 hPa0.2 mm
18/05/2022 10:2919.2 °C81 %16.1 °C2 km/hN11 km/h19.4 1023 hPa0.2 mm
18/05/2022 10:1418.5 °C84 %15.6 °C2 km/hN11 km/h18.3 1023 hPa0.2 mm
18/05/2022 10:0017.9 °C85 %15.6 °C3 km/hNNO11 km/h17.8 1023 hPa0.2 mm
18/05/2022 09:4417.6 °C87 %15.6 °C6 km/hN10 km/h17.8 1023 hPa0.2 mm
18/05/2022 09:3017.3 °C91 %15.6 °C2 km/hE10 km/h17.2 1023 hPa0.2 mm
18/05/2022 09:1516.6 °C92 %15.6 °C6 km/hNNO8 km/h16.7 1023 hPa0.2 mm
18/05/2022 09:1416.6 °C92 %15.6 °C8 km/hN10 km/h16.7 1023 hPa0.2 mm
18/05/2022 08:5916.5 °C93 %15.6 °C6 km/hN10 km/h16.7 1023 hPa0.2 mm
18/05/2022 08:4516.3 °C93 %15.0 °C5 km/hN8 km/h16.1 1023 hPa0.2 mm
18/05/2022 08:4416.3 °C94 %15.6 °C5 km/hNNO10 km/h16.1 1023 hPa0.2 mm
18/05/2022 08:2915.8 °C94 %15.0 °C-N10 km/h15.6 1023 hPa0.2 mm
18/05/2022 08:1415.2 °C94 %14.4 °C5 km/hN10 km/h15.0 1023 hPa0.2 mm
18/05/2022 08:0015.2 °C94 %14.4 °C5 km/hNNO5 km/h15.0 1023 hPa0.2 mm
18/05/2022 07:5915.2 °C94 %14.4 °C3 km/hN10 km/h15.0 1023 hPa0.2 mm
18/05/2022 07:4415.2 °C94 %14.4 °C-N10 km/h15.0 1023 hPa0.2 mm
18/05/2022 07:3015.0 °C94 %13.9 °C-N2 km/h15.0 1023 hPa0.2 mm
18/05/2022 07:2915.0 °C94 %13.9 °C-N10 km/h15.0 1023 hPa0.2 mm
18/05/2022 07:1514.8 °C94 %13.9 °C-N3 km/h15.0 1023 hPa0.2 mm
18/05/2022 07:1414.8 °C94 %13.9 °C-N10 km/h15.0 1023 hPa0.2 mm
18/05/2022 06:5914.8 °C94 %13.9 °C-N10 km/h15.0 1023 hPa0.2 mm
18/05/2022 06:4514.8 °C94 %13.9 °C-N10 km/h15.0 1023 hPa0.2 mm
18/05/2022 06:2914.8 °C94 %13.9 °C-N10 km/h15.0 1022 hPa0.2 mm
18/05/2022 06:1514.8 °C94 %13.9 °C-N5 km/h15.0 1022 hPa0.2 mm
18/05/2022 06:1414.8 °C94 %13.9 °C2 km/hN10 km/h15.0 1022 hPa0.2 mm
18/05/2022 05:5914.8 °C94 %13.9 °C6 km/hN10 km/h15.0 1022 hPa0.2 mm
18/05/2022 05:4414.8 °C94 %13.9 °C2 km/hN10 km/h15.0 1022 hPa0.2 mm
18/05/2022 05:3014.9 °C94 %13.9 °C2 km/hNNO5 km/h15.0 1022 hPa0.2 mm
18/05/2022 05:2914.9 °C94 %13.9 °C-NNO10 km/h15.0 1022 hPa0.2 mm
18/05/2022 05:1515.0 °C93 %13.9 °C3 km/hNO8 km/h15.0 1022 hPa0.2 mm
18/05/2022 05:1415.1 °C93 %13.9 °C2 km/hNO10 km/h15.0 1022 hPa0.2 mm
18/05/2022 04:5915.1 °C94 %13.9 °C3 km/hNO10 km/h15.0 1022 hPa0.2 mm
18/05/2022 04:4514.9 °C93 %13.9 °C2 km/hNO8 km/h15.0 1022 hPa0.2 mm
18/05/2022 04:4414.9 °C93 %13.9 °C3 km/hNO10 km/h15.0 1022 hPa0.2 mm
18/05/2022 04:2914.4 °C93 %13.3 °C-NO10 km/h14.4 1022 hPa0.2 mm
18/05/2022 04:1414.7 °C93 %13.3 °C-NO10 km/h14.4 1022 hPa0.2 mm
18/05/2022 04:0015.1 °C93 %13.9 °C-NO6 km/h15.0 1021 hPa0.2 mm
18/05/2022 03:5915.1 °C93 %13.9 °C2 km/hNO10 km/h15.0 1021 hPa0.2 mm
18/05/2022 03:4414.6 °C93 %13.3 °C-S10 km/h14.4 1022 hPa-
18/05/2022 03:3014.7 °C93 %13.3 °C2 km/hS3 km/h15.0 1022 hPa-
18/05/2022 03:2914.8 °C93 %13.9 °C2 km/hS10 km/h15.0 1022 hPa-
18/05/2022 03:1414.1 °C92 %12.8 °C-S10 km/h13.9 1021 hPa-
18/05/2022 03:0014.7 °C92 %13.3 °C-S10 km/h14.4 1021 hPa-
18/05/2022 02:4415.4 °C92 %13.9 °C-S10 km/h15.6 1021 hPa-
18/05/2022 02:3015.6 °C92 %14.4 °C-S10 km/h15.6 1021 hPa-
18/05/2022 02:1516.0 °C92 %14.4 °C-S3 km/h16.1 1021 hPa-
18/05/2022 02:1416.1 °C92 %15.0 °C-S10 km/h16.1 1021 hPa-
18/05/2022 01:5916.2 °C92 %15.0 °C-S10 km/h16.1 1021 hPa-
18/05/2022 01:4516.4 °C92 %15.0 °C3 km/hS5 km/h16.7 1021 hPa-
18/05/2022 01:4416.4 °C92 %15.0 °C2 km/hS10 km/h16.7 1021 hPa-
18/05/2022 01:2916.6 °C92 %15.0 °C-S10 km/h16.7 1021 hPa-
18/05/2022 01:1416.9 °C91 %15.6 °C5 km/hS10 km/h16.7 1021 hPa-
18/05/2022 00:5917.2 °C91 %15.6 °C3 km/hS10 km/h17.2 1021 hPa-
18/05/2022 00:4517.3 °C91 %16.1 °C6 km/hS10 km/h17.2 1020 hPa-
18/05/2022 00:4417.4 °C91 %16.1 °C6 km/hS10 km/h17.2 1020 hPa-
18/05/2022 00:2917.4 °C91 %16.1 °C5 km/hS10 km/h17.2 1020 hPa-
18/05/2022 00:1417.3 °C91 %16.1 °C5 km/hS10 km/h17.2 1020 hPa-
18/05/2022 00:0017.3 °C91 %16.1 °C5 km/hS8 km/h17.2 1020 hPa0.6 mm


Minima :

Température : 14.1 °C
Humidité : 54 %
Point de rosée : 12.8 °C
Vent moyen : 2 km/h
Windchill : 13.9
Pression atm. : 1020 hPa
Maxima :

Température : 26.4 °C
Humidité : 94 %
Point de rosée : 17.8 °C
Vent moyen : 10 km/h
Windchill : 26.7
Pression atm. : 1023 hPa
Rafales max : 14 km/h
Cumul de pluie sur 24H : 0.6 mm

Le Mesnil-Thomas est une commune du département Eure-et-Loir (28).
La station météorologique du réseau de l'association la plus proche de Le Mesnil-Thomas est celle de Digny



Icône Facebook Association Météo Centre Icône Twitter Association Météo Centre Icône Chaîne Youtube Association Météo Centre Icône contact Association Météo Centre Icône Insta Association Météo Centre